createdAt,value
2019-02-25T00:02:05.859Z,1.80
2019-02-25T00:04:39.460Z,1.80
2019-02-25T00:07:19.662Z,1.80
2019-02-25T00:09:56.570Z,1.80
2019-02-25T00:12:25.214Z,1.80
2019-02-25T00:14:53.882Z,1.70
2019-02-25T00:17:22.936Z,1.70
2019-02-25T00:20:08.441Z,1.70
2019-02-25T00:22:29.384Z,1.70
2019-02-25T00:24:58.396Z,1.60
2019-02-25T00:27:31.635Z,1.60
2019-02-25T00:30:00.298Z,1.60
2019-02-25T00:32:28.977Z,1.50
2019-02-25T00:34:57.886Z,1.50
2019-02-25T00:37:26.970Z,1.50
2019-02-25T00:39:55.487Z,1.50
2019-02-25T00:42:23.958Z,1.50
2019-02-25T00:44:52.860Z,1.40
2019-02-25T00:47:21.409Z,1.40
2019-02-25T00:49:49.988Z,1.30
2019-02-25T00:52:18.520Z,1.30
2019-02-25T00:54:47.218Z,1.30
2019-02-25T00:57:15.839Z,1.30
2019-02-25T00:59:44.315Z,1.20
2019-02-25T01:02:12.912Z,1.20
2019-02-25T01:04:41.528Z,1.20
2019-02-25T01:07:10.152Z,1.10
2019-02-25T01:09:38.638Z,1.10
2019-02-25T01:12:08.178Z,1.10
2019-02-25T01:14:36.726Z,1.10
2019-02-25T01:17:05.398Z,1.20
2019-02-25T01:19:33.854Z,1.10
2019-02-25T01:22:02.348Z,1.10
2019-02-25T01:24:30.816Z,1.10
2019-02-25T01:26:59.279Z,1.00
2019-02-25T01:29:27.825Z,1.00
2019-02-25T01:31:56.299Z,1.00
2019-02-25T01:34:26.860Z,0.90
2019-02-25T01:36:55.357Z,0.90
2019-02-25T01:39:23.843Z,0.80
2019-02-25T01:41:52.311Z,0.80
2019-02-25T01:44:20.792Z,0.90
2019-02-25T01:46:49.266Z,0.90
2019-02-25T01:49:17.774Z,0.80
2019-02-25T01:51:47.124Z,0.80
2019-02-25T01:54:15.609Z,0.80
2019-02-25T01:56:44.087Z,0.80
2019-02-25T01:59:12.594Z,0.80
2019-02-25T02:01:41.079Z,0.80
2019-02-25T02:04:09.553Z,0.80
2019-02-25T02:06:38.042Z,0.70
2019-02-25T02:09:07.431Z,0.70
2019-02-25T02:11:35.988Z,0.80
2019-02-25T02:14:04.688Z,0.70
2019-02-25T02:16:33.275Z,0.60
2019-02-25T02:19:01.757Z,0.60
2019-02-25T02:21:30.236Z,0.60
2019-02-25T02:23:58.777Z,0.60
2019-02-25T02:26:27.243Z,0.50
2019-02-25T02:28:55.711Z,0.50
2019-02-25T02:31:24.196Z,0.60
2019-02-25T02:33:52.669Z,0.60
2019-02-25T02:36:21.151Z,0.50
2019-02-25T02:38:49.689Z,0.50
2019-02-25T02:41:18.232Z,0.50
2019-02-25T02:43:46.708Z,0.40
2019-02-25T02:46:27.159Z,0.40
2019-02-25T02:48:58.978Z,0.50
2019-02-25T02:51:27.523Z,0.50
2019-02-25T02:53:56.061Z,0.50
2019-02-25T02:56:24.535Z,0.40
2019-02-25T02:58:53.003Z,0.40
2019-02-25T03:01:21.487Z,0.40
2019-02-25T03:03:50.092Z,0.40
2019-02-25T03:06:18.576Z,0.40
2019-02-25T03:08:47.045Z,0.40
2019-02-25T03:11:15.516Z,0.40
2019-02-25T03:13:43.997Z,0.40
2019-02-25T03:16:12.543Z,0.30
2019-02-25T03:18:41.009Z,0.30
2019-02-25T03:21:09.567Z,0.20
2019-02-25T03:23:38.043Z,0.20
2019-02-25T03:26:06.564Z,0.20
2019-02-25T03:28:35.038Z,0.20
2019-02-25T03:31:03.682Z,0.10
2019-02-25T03:33:32.186Z,0.20
2019-02-25T03:36:00.685Z,0.10
2019-02-25T03:38:29.163Z,0.10
2019-02-25T03:40:57.757Z,0.10
2019-02-25T03:43:26.220Z,0.00
2019-02-25T03:45:54.710Z,0.00
2019-02-25T03:48:23.192Z,0.00
2019-02-25T03:50:51.668Z,0.00
2019-02-25T03:53:20.134Z,0.00
2019-02-25T03:55:48.947Z,0.00
2019-02-25T03:58:17.508Z,-0.10
2019-02-25T04:00:46.042Z,0.00
2019-02-25T04:03:14.576Z,0.00
2019-02-25T04:05:43.247Z,0.00
2019-02-25T04:08:11.857Z,0.00
2019-02-25T04:10:40.390Z,-0.10
2019-02-25T04:13:08.882Z,-0.10
2019-02-25T04:15:39.003Z,-0.10
2019-02-25T04:18:07.561Z,-0.10
2019-02-25T04:20:36.095Z,0.00
2019-02-25T04:23:04.564Z,-0.10
2019-02-25T04:25:33.027Z,-0.10
2019-02-25T04:28:01.514Z,-0.10
2019-02-25T04:30:30.053Z,-0.10
2019-02-25T04:32:58.629Z,-0.10
2019-02-25T04:35:27.179Z,-0.10
2019-02-25T04:37:55.640Z,-0.10
2019-02-25T04:40:24.120Z,-0.10
2019-02-25T04:42:52.609Z,-0.10
2019-02-25T04:45:21.564Z,-0.10
2019-02-25T04:47:50.048Z,-0.10
2019-02-25T04:50:18.601Z,-0.10
2019-02-25T04:52:47.139Z,-0.10
2019-02-25T04:55:15.991Z,-0.20
2019-02-25T04:57:44.547Z,-0.20
2019-02-25T05:00:15.552Z,-0.10
2019-02-25T05:02:44.102Z,-0.20
2019-02-25T05:05:12.568Z,-0.20
2019-02-25T05:07:41.036Z,-0.20
2019-02-25T05:10:11.853Z,-0.20
2019-02-25T05:12:42.041Z,-0.30
2019-02-25T05:15:12.796Z,-0.30
2019-02-25T05:17:42.881Z,-0.30
2019-02-25T05:20:11.490Z,-0.30
2019-02-25T05:22:39.990Z,-0.30
2019-02-25T05:25:10.559Z,-0.30
2019-02-25T05:27:39.109Z,-0.20
2019-02-25T05:30:10.726Z,-0.20
2019-02-25T05:32:39.205Z,-0.30
2019-02-25T05:35:11.083Z,-0.30
2019-02-25T05:37:42.011Z,-0.30
2019-02-25T05:40:20.253Z,-0.40
2019-02-25T05:42:48.754Z,-0.40
2019-02-25T05:45:17.419Z,-0.40
2019-02-25T05:47:45.905Z,-0.40
2019-02-25T05:50:22.162Z,-0.40
2019-02-25T05:52:50.724Z,-0.40
2019-02-25T05:55:19.441Z,-0.40
2019-02-25T05:57:47.985Z,-0.40
2019-02-25T06:00:19.230Z,-0.50
2019-02-25T06:02:47.879Z,-0.50
2019-02-25T06:05:16.345Z,-0.50
2019-02-25T06:07:46.889Z,-0.50
2019-02-25T06:10:15.534Z,-0.50
2019-02-25T06:12:43.999Z,-0.50
2019-02-25T06:15:17.180Z,-0.40
2019-02-25T06:17:45.681Z,-0.50
2019-02-25T06:20:15.266Z,-0.50
2019-02-25T06:22:44.177Z,-0.50
2019-02-25T06:25:13.854Z,-0.40
2019-02-25T06:27:42.536Z,-0.50
2019-02-25T06:30:16.711Z,-0.50
2019-02-25T06:32:45.248Z,-0.40
2019-02-25T06:35:14.171Z,-0.40
2019-02-25T06:37:42.850Z,-0.40
2019-02-25T06:40:15.578Z,-0.40
2019-02-25T06:42:44.352Z,-0.30
2019-02-25T06:45:15.298Z,-0.30
2019-02-25T06:47:43.839Z,-0.30
2019-02-25T06:50:12.634Z,-0.30
2019-02-25T06:52:41.097Z,-0.30
2019-02-25T06:55:12.239Z,-0.20
2019-02-25T06:57:40.712Z,-0.30
2019-02-25T07:00:17.221Z,-0.20
2019-02-25T07:02:45.691Z,-0.20
2019-02-25T07:05:24.856Z,-0.10
2019-02-25T07:07:55.080Z,0.00
2019-02-25T07:10:30.805Z,0.00
2019-02-25T07:13:16.950Z,0.00
2019-02-25T07:16:06.870Z,0.10
2019-02-25T07:18:52.152Z,0.10
2019-02-25T07:21:22.288Z,0.20
2019-02-25T07:24:08.617Z,0.20
2019-02-25T07:26:44.925Z,0.30
2019-02-25T07:29:26.956Z,0.40
2019-02-25T07:31:57.233Z,0.50
2019-02-25T07:34:27.354Z,0.60
2019-02-25T07:37:03.324Z,0.70
2019-02-25T07:39:36.527Z,0.80
2019-02-25T07:42:12.854Z,0.80
2019-02-25T07:44:48.985Z,0.90
2019-02-25T07:47:22.062Z,1.10
2019-02-25T07:49:58.138Z,1.30
2019-02-25T07:52:31.190Z,1.30
2019-02-25T07:55:04.401Z,1.50
2019-02-25T07:57:39.040Z,1.80
2019-02-25T08:00:17.252Z,2.00
2019-02-25T08:02:50.476Z,2.00
2019-02-25T08:05:35.730Z,2.00
2019-02-25T08:08:47.052Z,2.10
2019-02-25T08:21:38.496Z,3.10
2019-02-25T08:24:08.619Z,4.90
2019-02-25T08:26:44.758Z,5.80
2019-02-25T08:36:37.424Z,10.60
2019-02-25T08:39:11.288Z,13.10
2019-02-25T08:41:47.198Z,14.20
2019-02-25T08:44:17.399Z,14.80
2019-02-25T08:46:47.690Z,14.80
2019-02-25T08:49:21.097Z,15.30
2019-02-25T08:51:49.642Z,15.60
2019-02-25T08:54:18.900Z,15.60
2019-02-25T08:56:47.445Z,16.20
2019-02-25T08:59:15.931Z,16.00
2019-02-25T09:01:44.449Z,16.00
2019-02-25T09:04:12.941Z,16.40
2019-02-25T09:06:41.543Z,16.40
2019-02-25T09:09:10.101Z,16.70
2019-02-25T09:11:39.042Z,16.60
2019-02-25T09:14:07.973Z,16.90
2019-02-25T09:16:36.565Z,17.00
2019-02-25T09:19:05.039Z,16.60
2019-02-25T09:21:33.544Z,15.30
2019-02-25T09:24:02.023Z,15.90
2019-02-25T09:26:30.575Z,16.30
2019-02-25T09:32:08.549Z,17.40
2019-02-25T09:34:38.005Z,17.40
2019-02-25T09:37:12.158Z,17.10
2019-02-25T09:39:51.903Z,17.30
2019-02-25T09:42:41.499Z,17.20
2019-02-25T09:45:14.449Z,17.50
2019-02-25T09:47:43.071Z,18.20
2019-02-25T09:50:17.080Z,18.30
2019-02-25T09:52:45.699Z,18.00
2019-02-25T09:55:14.899Z,17.60
2019-02-25T09:57:43.440Z,17.60
2019-02-25T10:00:22.217Z,17.20
2019-02-25T10:02:50.772Z,17.20
2019-02-25T10:05:19.239Z,16.30
2019-02-25T10:07:47.964Z,16.30
2019-02-25T10:10:18.120Z,15.50
2019-02-25T10:12:46.787Z,15.00
2019-02-25T10:15:28.378Z,14.80
2019-02-25T10:17:56.973Z,14.20
2019-02-25T10:20:27.647Z,14.30
2019-02-25T10:22:56.222Z,14.70
2019-02-25T10:25:24.824Z,15.30
2019-02-25T10:27:53.361Z,16.00
2019-02-25T10:30:21.944Z,16.00
2019-02-25T10:32:50.704Z,16.10
2019-02-25T10:35:31.494Z,16.40
2019-02-25T10:38:01.043Z,16.60
2019-02-25T10:40:30.340Z,16.70
2019-02-25T10:42:58.827Z,16.50
2019-02-25T10:45:27.308Z,16.40
2019-02-25T10:47:58.683Z,16.30
2019-02-25T10:50:26.454Z,16.30
2019-02-25T10:53:03.266Z,16.50
2019-02-25T10:55:45.083Z,15.80
2019-02-25T10:58:17.055Z,16.00
2019-02-25T11:00:46.087Z,16.00
2019-02-25T11:03:15.280Z,15.80
2019-02-25T11:05:45.384Z,15.90
2019-02-25T11:08:15.538Z,16.00
2019-02-25T11:10:48.678Z,16.10
2019-02-25T11:13:18.411Z,16.60
2019-02-25T11:15:48.397Z,17.00
2019-02-25T11:18:19.173Z,16.90
2019-02-25T11:20:47.316Z,17.00
2019-02-25T11:23:17.604Z,15.90
2019-02-25T11:25:46.501Z,16.00
2019-02-25T11:28:24.895Z,16.10
2019-02-25T11:30:47.150Z,16.70
2019-02-25T11:33:15.600Z,16.60
2019-02-25T11:35:45.806Z,16.90
2019-02-25T11:38:14.796Z,16.40
2019-02-25T11:40:43.281Z,16.40
2019-02-25T11:43:13.367Z,16.40
2019-02-25T11:45:41.948Z,16.30
2019-02-25T11:48:10.590Z,15.80
2019-02-25T11:50:39.074Z,15.90
2019-02-25T11:53:07.547Z,15.70
2019-02-25T11:55:36.111Z,15.70
2019-02-25T11:58:04.644Z,15.10
2019-02-25T12:00:33.396Z,15.30
2019-02-25T12:03:01.890Z,15.50
2019-02-25T12:05:30.498Z,15.40
2019-02-25T12:07:58.956Z,15.30
2019-02-25T12:10:27.438Z,15.50
2019-02-25T12:12:55.897Z,15.30
2019-02-25T12:15:24.455Z,15.40
2019-02-25T12:17:52.928Z,15.60
2019-02-25T12:20:21.388Z,15.60
2019-02-25T12:22:49.844Z,15.40
2019-02-25T12:25:22.464Z,15.30
2019-02-25T12:27:51.016Z,15.10
2019-02-25T12:30:24.592Z,15.20
2019-02-25T12:32:53.245Z,15.20
2019-02-25T12:35:21.771Z,15.30
2019-02-25T12:37:50.247Z,15.30
2019-02-25T12:40:19.354Z,15.30
2019-02-25T12:42:47.825Z,15.10
2019-02-25T12:45:16.850Z,15.10
2019-02-25T12:47:45.418Z,15.00
2019-02-25T12:50:16.185Z,15.00
2019-02-25T12:52:44.658Z,14.90
2019-02-25T12:55:17.196Z,14.80
2019-02-25T12:57:45.754Z,14.80
2019-02-25T13:00:17.954Z,14.80
2019-02-25T13:02:46.480Z,14.90
2019-02-25T13:05:17.184Z,14.90
2019-02-25T13:07:45.667Z,15.00
2019-02-25T13:10:15.766Z,14.90
2019-02-25T13:12:44.364Z,14.90
2019-02-25T13:15:24.623Z,14.70
2019-02-25T13:17:53.103Z,14.80
2019-02-25T13:20:21.571Z,14.90
2019-02-25T13:22:50.048Z,15.00
2019-02-25T13:25:24.405Z,15.10
2019-02-25T13:27:54.384Z,15.10
2019-02-25T13:30:23.108Z,15.20
2019-02-25T13:32:51.673Z,15.20
2019-02-25T13:35:20.227Z,15.20
2019-02-25T13:37:48.859Z,15.20
2019-02-25T13:40:18.130Z,15.20
2019-02-25T13:42:46.662Z,15.40
2019-02-25T13:45:21.916Z,15.30
2019-02-25T13:47:50.469Z,15.20
2019-02-25T13:50:19.866Z,15.30
2019-02-25T13:52:49.062Z,15.40
2019-02-25T13:55:19.781Z,15.40
2019-02-25T13:57:48.337Z,15.50
2019-02-25T14:00:29.148Z,15.40
2019-02-25T14:02:57.834Z,15.50
2019-02-25T14:05:26.464Z,15.40
2019-02-25T14:07:55.034Z,15.20
2019-02-25T14:10:23.669Z,15.10
2019-02-25T14:12:52.521Z,15.10
2019-02-25T14:15:23.318Z,15.10
2019-02-25T14:17:51.922Z,15.10
2019-02-25T14:20:22.692Z,15.00
2019-02-25T14:22:51.342Z,15.00
2019-02-25T14:25:35.708Z,15.00
2019-02-25T14:28:07.854Z,15.00
2019-02-25T14:30:36.064Z,14.90
2019-02-25T14:33:04.696Z,14.90
2019-02-25T14:35:33.808Z,14.80
2019-02-25T14:38:14.742Z,14.80
2019-02-25T14:40:42.289Z,14.80
2019-02-25T14:43:14.746Z,14.60
2019-02-25T14:45:44.421Z,14.60
2019-02-25T14:48:15.397Z,14.60
2019-02-25T14:50:43.708Z,14.60
2019-02-25T14:53:14.425Z,14.60
2019-02-25T14:55:44.831Z,14.60
2019-02-25T14:58:14.909Z,14.60
2019-02-25T15:00:42.876Z,14.60
2019-02-25T15:03:11.574Z,14.60
2019-02-25T15:05:40.212Z,14.60
2019-02-25T15:08:10.090Z,14.70
2019-02-25T15:10:40.687Z,14.70
2019-02-25T15:13:10.550Z,14.60
2019-02-25T15:15:41.163Z,14.50
2019-02-25T15:18:09.522Z,14.50
2019-02-25T15:20:38.070Z,14.60
2019-02-25T15:23:07.485Z,14.50
2019-02-25T15:25:40.267Z,14.40
2019-02-25T15:28:09.369Z,14.30
2019-02-25T15:30:36.758Z,14.30
2019-02-25T15:33:05.588Z,14.30
2019-02-25T15:35:35.107Z,14.30
2019-02-25T15:38:04.615Z,14.20
2019-02-25T15:40:33.284Z,14.20
2019-02-25T15:43:04.758Z,14.10
2019-02-25T15:45:37.316Z,14.00
2019-02-25T15:48:07.678Z,13.80
2019-02-25T15:50:36.584Z,13.90
2019-02-25T15:53:07.227Z,14.20
2019-02-25T15:55:35.836Z,14.50
2019-02-25T15:58:04.554Z,14.30
2019-02-25T16:00:34.971Z,13.80
2019-02-25T16:03:06.164Z,13.40
2019-02-25T16:05:36.814Z,13.20
2019-02-25T16:08:05.846Z,13.00
2019-02-25T16:10:34.561Z,12.80
2019-02-25T16:13:05.922Z,12.70
2019-02-25T16:15:33.485Z,12.70
2019-02-25T16:18:02.586Z,12.40
2019-02-25T16:20:32.482Z,12.20
2019-02-25T16:23:02.802Z,12.30
2019-02-25T16:25:32.750Z,12.20
2019-02-25T16:28:02.464Z,12.10
2019-02-25T16:30:31.305Z,12.00
2019-02-25T16:33:01.827Z,11.90
2019-02-25T16:35:30.065Z,11.80
2019-02-25T16:38:00.274Z,11.80
2019-02-25T16:40:30.868Z,11.60
2019-02-25T16:42:59.831Z,11.40
2019-02-25T16:45:34.840Z,11.20
2019-02-25T16:47:59.611Z,11.10
2019-02-25T16:50:28.479Z,10.90
2019-02-25T16:52:57.211Z,10.70
2019-02-25T16:55:27.762Z,10.60
2019-02-25T16:57:56.586Z,10.40
2019-02-25T17:00:27.830Z,10.20
2019-02-25T17:02:59.416Z,10.00
2019-02-25T17:05:27.891Z,9.80
2019-02-25T17:07:56.656Z,9.60
2019-02-25T17:10:29.692Z,9.50
2019-02-25T17:12:58.381Z,9.40
2019-02-25T17:15:27.391Z,9.20
2019-02-25T17:17:58.330Z,9.10
2019-02-25T17:20:28.033Z,8.90
2019-02-25T17:22:56.423Z,8.70
2019-02-25T17:25:26.943Z,8.60
2019-02-25T17:27:55.297Z,8.50
2019-02-25T17:30:28.529Z,8.40
2019-02-25T17:32:57.306Z,8.30
2019-02-25T17:35:28.322Z,8.20
2019-02-25T17:37:58.368Z,8.10
2019-02-25T17:40:26.499Z,8.00
2019-02-25T17:42:56.340Z,7.90
2019-02-25T17:45:32.425Z,7.80
2019-02-25T17:48:03.147Z,7.80
2019-02-25T17:50:32.531Z,7.60
2019-02-25T17:53:01.497Z,7.60
2019-02-25T17:55:32.234Z,7.50
2019-02-25T17:58:01.416Z,7.40
2019-02-25T18:00:34.992Z,7.40
2019-02-25T18:03:03.682Z,7.30
2019-02-25T18:05:34.120Z,7.20
2019-02-25T18:08:03.507Z,7.10
2019-02-25T18:10:33.093Z,7.00
2019-02-25T18:13:05.980Z,7.00
2019-02-25T18:15:34.795Z,6.90
2019-02-25T18:18:07.125Z,6.90
2019-02-25T18:20:36.620Z,6.90
2019-02-25T18:23:05.559Z,6.80
2019-02-25T18:25:34.163Z,6.80
2019-02-25T18:28:04.392Z,6.70
2019-02-25T18:30:33.453Z,6.60
2019-02-25T18:33:05.010Z,6.60
2019-02-25T18:35:35.765Z,6.50
2019-02-25T18:38:04.794Z,6.50
2019-02-25T18:40:33.962Z,6.40
2019-02-25T18:43:04.400Z,6.30
2019-02-25T18:45:35.565Z,6.30
2019-02-25T18:48:04.208Z,6.20
2019-02-25T18:50:33.499Z,6.10
2019-02-25T18:53:02.096Z,6.00
2019-02-25T18:55:33.552Z,5.90
2019-02-25T18:58:01.145Z,5.90
2019-02-25T19:00:36.214Z,5.90
2019-02-25T19:03:06.308Z,5.80
2019-02-25T19:05:34.925Z,5.80
2019-02-25T19:08:09.693Z,5.70
2019-02-25T19:10:41.279Z,5.70
2019-02-25T19:13:08.226Z,5.60
2019-02-25T19:15:37.413Z,5.50
2019-02-25T19:18:06.931Z,5.50
2019-02-25T19:20:36.705Z,5.40
2019-02-25T19:23:09.478Z,5.40
2019-02-25T19:25:37.106Z,5.40
2019-02-25T19:28:06.126Z,5.30
2019-02-25T19:30:35.106Z,5.30
2019-02-25T19:33:10.848Z,5.20
2019-02-25T19:35:36.090Z,5.20
2019-02-25T19:38:05.841Z,5.10
2019-02-25T19:40:38.438Z,5.10
2019-02-25T19:43:06.028Z,5.10
2019-02-25T19:45:36.424Z,5.00
2019-02-25T19:48:07.180Z,5.00
2019-02-25T19:50:38.531Z,4.90
2019-02-25T19:53:07.637Z,4.90
2019-02-25T19:55:40.458Z,4.80
2019-02-25T19:58:06.686Z,4.80
2019-02-25T20:00:35.979Z,4.70
2019-02-25T20:03:06.113Z,4.70
2019-02-25T20:05:38.822Z,4.70
2019-02-25T20:08:05.654Z,4.70
2019-02-25T20:10:35.226Z,4.60
2019-02-25T20:13:07.741Z,4.60
2019-02-25T20:15:37.604Z,4.50
2019-02-25T20:18:06.997Z,4.50
2019-02-25T20:20:38.909Z,4.50
2019-02-25T20:23:08.609Z,4.40
2019-02-25T20:25:37.326Z,4.40
2019-02-25T20:28:06.105Z,4.30
2019-02-25T20:30:34.878Z,4.20
2019-02-25T20:33:05.857Z,4.20
2019-02-25T20:35:33.777Z,4.20
2019-02-25T20:38:03.219Z,4.10
2019-02-25T20:40:33.106Z,4.10
2019-02-25T20:43:03.103Z,4.00
2019-02-25T20:45:35.718Z,4.00
2019-02-25T20:48:05.443Z,3.90
2019-02-25T20:50:33.936Z,3.90
2019-02-25T20:53:05.690Z,3.90
2019-02-25T20:55:34.550Z,3.80
2019-02-25T20:58:02.887Z,3.80
2019-02-25T21:00:34.986Z,3.70
2019-02-25T21:03:01.701Z,3.60
2019-02-25T21:05:30.267Z,3.60
2019-02-25T21:07:59.894Z,3.60
2019-02-25T21:10:30.568Z,3.60
2019-02-25T21:13:01.874Z,3.50
2019-02-25T21:15:29.734Z,3.50
2019-02-25T21:17:59.976Z,3.40
2019-02-25T21:20:29.549Z,3.40
2019-02-25T21:23:03.591Z,3.40
2019-02-25T21:25:31.452Z,3.10
2019-02-25T21:28:02.288Z,3.20
2019-02-25T21:30:31.122Z,3.20
2019-02-25T21:33:01.909Z,3.20
2019-02-25T21:35:34.238Z,3.10
2019-02-25T21:38:00.894Z,3.10
2019-02-25T21:40:30.711Z,3.10
2019-02-25T21:42:59.707Z,3.10
2019-02-25T21:45:31.753Z,3.00
2019-02-25T21:48:01.160Z,3.00
2019-02-25T21:50:30.869Z,3.10
2019-02-25T21:52:58.871Z,3.10
2019-02-25T21:55:28.585Z,3.10
2019-02-25T21:58:00.026Z,3.00
2019-02-25T22:00:31.972Z,3.00
2019-02-25T22:02:58.087Z,3.00
2019-02-25T22:05:26.644Z,2.90
2019-02-25T22:07:57.325Z,3.10
2019-02-25T22:10:25.413Z,2.80
2019-02-25T22:12:53.881Z,2.80
2019-02-25T22:15:22.620Z,2.80
2019-02-25T22:17:53.436Z,2.80
2019-02-25T22:20:22.498Z,2.70
2019-02-25T22:22:54.530Z,2.70
2019-02-25T22:25:25.311Z,2.70
2019-02-25T22:27:53.800Z,2.80
2019-02-25T22:30:22.363Z,2.80
2019-02-25T22:32:53.011Z,2.90
2019-02-25T22:35:21.485Z,2.90
2019-02-25T22:37:52.669Z,2.90
2019-02-25T22:40:20.317Z,2.90
2019-02-25T22:42:50.430Z,2.90
2019-02-25T22:45:20.321Z,2.90
2019-02-25T22:47:48.877Z,2.90
2019-02-25T22:50:17.421Z,2.90
2019-02-25T22:52:45.898Z,3.00
2019-02-25T22:55:15.240Z,3.00
2019-02-25T22:57:46.102Z,3.00
2019-02-25T23:00:34.180Z,3.00
2019-02-25T23:03:02.846Z,2.90
2019-02-25T23:05:31.578Z,2.80
2019-02-25T23:08:00.129Z,2.80
2019-02-25T23:10:28.665Z,2.80
2019-02-25T23:12:57.299Z,2.70
2019-02-25T23:15:28.137Z,2.60
2019-02-25T23:18:05.057Z,2.60
2019-02-25T23:20:27.426Z,2.60
2019-02-25T23:22:57.375Z,2.50
2019-02-25T23:25:26.774Z,2.50
2019-02-25T23:27:55.736Z,2.40
2019-02-25T23:30:25.549Z,2.40
2019-02-25T23:32:54.576Z,2.40
2019-02-25T23:35:25.285Z,2.30
2019-02-25T23:37:54.431Z,2.30
2019-02-25T23:40:23.896Z,2.30
2019-02-25T23:42:52.364Z,2.20
2019-02-25T23:45:23.053Z,2.20
2019-02-25T23:47:55.234Z,2.20
2019-02-25T23:50:21.263Z,2.20
2019-02-25T23:52:49.811Z,2.10
2019-02-25T23:55:19.684Z,2.10
2019-02-25T23:57:48.491Z,2.00
